createdAt,value
2023-09-08T00:03:57.035Z,2.28
2023-09-08T00:08:58.974Z,3.15
2023-09-08T00:14:01.006Z,2.22
2023-09-08T00:19:02.944Z,1.98
2023-09-08T00:24:08.127Z,3.17
2023-09-08T00:29:10.138Z,2.72
2023-09-08T00:34:12.250Z,2.28
2023-09-08T00:39:14.291Z,3.25
2023-09-08T00:44:16.494Z,2.40
2023-09-08T00:49:18.681Z,2.60
2023-09-08T00:54:20.659Z,2.25
2023-09-08T00:59:22.600Z,2.10
2023-09-08T01:04:24.731Z,2.53
2023-09-08T01:09:27.813Z,2.88
2023-09-08T01:14:30.690Z,2.25
2023-09-08T01:19:32.630Z,2.13
2023-09-08T01:24:59.436Z,2.75
2023-09-08T01:30:06.512Z,2.50
2023-09-08T01:35:09.050Z,2.42
2023-09-08T01:40:11.874Z,2.63
2023-09-08T01:45:13.798Z,2.40
2023-09-08T01:50:22.423Z,2.40
2023-09-08T01:55:24.333Z,2.63
2023-09-08T02:00:26.349Z,2.50
2023-09-08T02:05:28.770Z,2.63
2023-09-08T02:10:30.802Z,2.30
2023-09-08T02:15:35.801Z,2.10
2023-09-08T02:20:37.812Z,2.30
2023-09-08T02:25:39.680Z,1.98
2023-09-08T02:30:41.652Z,2.30
2023-09-08T02:35:44.564Z,2.20
2023-09-08T02:40:47.434Z,2.40
2023-09-08T02:45:49.603Z,2.58
2023-09-08T02:50:54.872Z,2.35
2023-09-08T02:55:57.517Z,2.63
2023-09-08T03:00:59.387Z,2.53
2023-09-08T03:06:04.377Z,2.40
2023-09-08T03:11:07.435Z,2.30
2023-09-08T03:16:10.026Z,2.90
2023-09-08T03:21:15.675Z,2.25
2023-09-08T03:26:17.549Z,2.53
2023-09-08T03:31:19.649Z,2.58
2023-09-08T03:36:21.750Z,2.47
2023-09-08T03:41:23.751Z,2.53
2023-09-08T03:46:26.620Z,2.30
2023-09-08T03:51:29.265Z,2.33
2023-09-08T03:56:31.534Z,2.42
2023-09-08T04:01:33.649Z,2.50
2023-09-08T04:06:35.601Z,2.58
2023-09-08T04:11:37.644Z,2.47
2023-09-08T04:16:39.637Z,2.08
2023-09-08T04:21:42.411Z,2.53
2023-09-08T04:26:44.304Z,3.15
2023-09-08T04:31:46.707Z,2.13
2023-09-08T04:36:48.872Z,2.15
2023-09-08T04:41:50.837Z,2.00
2023-09-08T04:46:53.833Z,2.60
2023-09-08T04:51:56.067Z,2.63
2023-09-08T04:57:11.631Z,2.80
2023-09-08T05:07:23.196Z,1.90
2023-09-08T05:12:25.922Z,2.10
2023-09-08T05:17:28.172Z,1.92
2023-09-08T05:22:30.248Z,1.85
2023-09-08T05:27:33.171Z,1.80
2023-09-08T05:32:35.369Z,2.17
2023-09-08T05:37:37.606Z,1.80
2023-09-08T05:42:39.569Z,2.30
2023-09-08T05:47:41.683Z,2.38
2023-09-08T05:52:44.695Z,1.90
2023-09-08T05:57:47.532Z,2.30
2023-09-08T06:02:49.714Z,1.85
2023-09-08T06:08:05.887Z,2.28
2023-09-08T06:13:11.435Z,2.50
2023-09-08T06:18:14.960Z,2.40
2023-09-08T06:23:21.534Z,2.13
2023-09-08T06:28:24.908Z,2.25
2023-09-08T06:33:27.241Z,2.38
2023-09-08T06:38:32.778Z,2.15
2023-09-08T06:43:36.978Z,2.60
2023-09-08T06:48:44.400Z,2.40
2023-09-08T06:53:56.165Z,2.42
2023-09-08T06:59:01.464Z,2.90
2023-09-08T07:04:04.903Z,2.47
2023-09-08T07:09:07.788Z,2.40
2023-09-08T07:14:09.968Z,3.22
2023-09-08T07:19:12.471Z,2.50
2023-09-08T07:24:15.364Z,2.95
2023-09-08T07:29:18.883Z,2.90
2023-09-08T07:34:21.387Z,3.47
2023-09-08T07:39:23.484Z,3.55
2023-09-08T07:44:26.085Z,3.55
2023-09-08T07:49:28.445Z,2.95
2023-09-08T07:54:30.689Z,2.67
2023-09-08T07:59:58.089Z,3.03
2023-09-08T08:05:00.212Z,3.22
2023-09-08T08:10:02.356Z,3.08
2023-09-08T08:15:05.832Z,2.95
2023-09-08T08:20:10.602Z,2.97
2023-09-08T08:25:16.996Z,2.80
2023-09-08T08:30:19.288Z,2.83
2023-09-08T08:35:21.996Z,2.90
2023-09-08T08:40:28.262Z,3.05
2023-09-08T08:45:31.578Z,3.15
2023-09-08T08:50:34.122Z,3.03
2023-09-08T08:55:39.365Z,2.50
2023-09-08T09:00:42.167Z,2.75
2023-09-08T09:05:48.399Z,2.90
2023-09-08T09:10:52.978Z,2.53
2023-09-08T09:16:01.069Z,2.40
2023-09-08T09:21:03.890Z,2.80
2023-09-08T09:26:06.090Z,2.67
2023-09-08T09:31:08.422Z,2.60
2023-09-08T09:36:10.590Z,2.67
2023-09-08T09:41:13.467Z,2.72
2023-09-08T09:46:16.820Z,2.50
2023-09-08T09:51:21.046Z,2.63
2023-09-08T09:56:25.071Z,2.78
2023-09-08T10:01:28.158Z,2.50
2023-09-08T10:06:33.252Z,2.50
2023-09-08T10:11:40.581Z,2.95
2023-09-08T10:16:45.714Z,2.63
2023-09-08T10:21:49.858Z,2.42
2023-09-08T10:27:01.814Z,2.55
2023-09-08T10:32:05.362Z,2.60
2023-09-08T10:37:23.046Z,2.50
2023-09-08T10:42:28.543Z,2.47
2023-09-08T10:47:38.046Z,2.80
2023-09-08T10:52:40.253Z,2.20
2023-09-08T10:57:46.742Z,2.53
2023-09-08T11:02:52.239Z,2.30
2023-09-08T11:07:55.161Z,2.40
2023-09-08T11:12:57.301Z,2.50
2023-09-08T11:18:06.453Z,2.45
2023-09-08T11:23:08.731Z,2.30
2023-09-08T11:28:11.163Z,2.20
2023-09-08T11:33:28.237Z,2.28
2023-09-08T11:38:31.177Z,2.15
2023-09-08T11:43:36.069Z,2.40
2023-09-08T11:48:38.900Z,2.45
2023-09-08T11:53:42.455Z,2.25
2023-09-08T11:58:45.794Z,2.20
2023-09-08T12:03:55.404Z,2.20
2023-09-08T12:09:04.106Z,2.22
2023-09-08T12:14:10.957Z,2.70
2023-09-08T12:19:32.626Z,2.28
2023-09-08T12:24:58.086Z,2.28
2023-09-08T12:30:02.141Z,2.00
2023-09-08T12:35:05.789Z,2.00
2023-09-08T12:40:08.703Z,1.80
2023-09-08T12:45:11.039Z,1.80
2023-09-08T12:50:14.581Z,2.00
2023-09-08T12:55:17.074Z,1.80
2023-09-08T13:00:19.247Z,1.80
2023-09-08T13:05:21.569Z,1.70
2023-09-08T13:10:23.764Z,1.70
2023-09-08T13:15:25.895Z,1.83
2023-09-08T13:20:28.026Z,1.88
2023-09-08T13:25:31.090Z,1.67
2023-09-08T13:30:33.315Z,1.65
2023-09-08T13:35:35.452Z,1.80
2023-09-08T13:40:37.592Z,2.15
2023-09-08T13:45:39.741Z,2.00
2023-09-08T13:50:44.343Z,1.90
2023-09-08T13:55:50.511Z,1.90
2023-09-08T14:00:54.331Z,1.98
2023-09-08T14:06:02.988Z,1.80
2023-09-08T14:11:15.354Z,1.85
2023-09-08T14:16:21.459Z,2.13
2023-09-08T14:21:23.610Z,1.90
2023-09-08T14:26:26.928Z,2.15
2023-09-08T14:31:29.129Z,1.90
2023-09-08T14:36:31.328Z,1.90
2023-09-08T14:41:33.562Z,1.88
2023-09-08T14:46:35.753Z,2.00
2023-09-08T14:51:37.867Z,1.80
2023-09-08T14:56:39.934Z,1.80
2023-09-08T15:01:44.397Z,2.08
2023-09-08T15:06:46.821Z,2.10
2023-09-08T15:11:49.052Z,2.30
2023-09-08T15:16:51.239Z,2.72
2023-09-08T15:21:53.388Z,2.22
2023-09-08T15:26:55.567Z,2.40
2023-09-08T15:31:58.896Z,2.15
2023-09-08T15:37:01.614Z,1.90
2023-09-08T15:42:05.247Z,2.17
2023-09-08T15:47:07.421Z,2.05
2023-09-08T15:52:16.634Z,1.90
2023-09-08T15:57:19.262Z,2.10
2023-09-08T16:02:21.395Z,2.13
2023-09-08T16:07:25.154Z,2.08
2023-09-08T16:12:27.554Z,2.10
2023-09-08T16:17:29.842Z,2.05
2023-09-08T16:22:32.031Z,2.97
2023-09-08T16:28:24.967Z,2.13
2023-09-08T16:33:27.094Z,1.80
2023-09-08T16:38:29.271Z,2.17
2023-09-08T16:43:31.631Z,2.35
2023-09-08T16:48:33.902Z,2.08
2023-09-08T16:53:36.180Z,2.05
2023-09-08T16:58:38.556Z,2.00
2023-09-08T17:03:41.154Z,1.90
2023-09-08T17:08:43.765Z,2.00
2023-09-08T17:13:45.851Z,2.00
2023-09-08T17:18:48.075Z,1.83
2023-09-08T17:23:50.411Z,2.13
2023-09-08T17:28:53.133Z,2.10
2023-09-08T17:33:55.198Z,2.08
2023-09-08T17:39:06.357Z,2.30
2023-09-08T17:44:08.542Z,2.45
2023-09-08T17:49:10.913Z,2.45
2023-09-08T17:54:13.227Z,2.30
2023-09-08T17:59:15.455Z,2.22
2023-09-08T18:04:17.740Z,2.20
2023-09-08T18:09:20.083Z,2.13
2023-09-08T18:14:22.500Z,2.40
2023-09-08T18:19:24.584Z,2.08
2023-09-08T18:24:26.907Z,2.28
2023-09-08T18:29:29.921Z,2.45
2023-09-08T18:34:31.975Z,2.65
2023-09-08T18:39:34.535Z,2.40
2023-09-08T18:44:43.389Z,2.40
2023-09-08T18:49:45.738Z,2.33
2023-09-08T18:54:48.509Z,2.30
2023-09-08T18:59:51.539Z,2.10
2023-09-08T19:04:53.817Z,2.30
2023-09-08T19:09:56.506Z,2.35
2023-09-08T19:14:59.014Z,2.40
2023-09-08T19:20:01.449Z,2.45
2023-09-08T19:25:03.829Z,2.38
2023-09-08T19:30:12.035Z,2.60
2023-09-08T19:35:14.196Z,2.63
2023-09-08T19:40:16.546Z,2.30
2023-09-08T19:45:18.990Z,2.40
2023-09-08T19:50:21.401Z,2.67
2023-09-08T19:55:24.023Z,2.50
2023-09-08T20:00:26.206Z,2.60
2023-09-08T20:05:28.995Z,2.35
2023-09-08T20:10:31.141Z,2.42
2023-09-08T20:15:36.528Z,2.60
2023-09-08T20:20:38.607Z,2.33
2023-09-08T20:25:40.926Z,3.15
2023-09-08T20:30:43.094Z,2.45
2023-09-08T20:35:45.613Z,2.83
2023-09-08T20:41:13.963Z,2.75
2023-09-08T20:46:16.258Z,2.60
2023-09-08T20:51:21.108Z,2.65
2023-09-08T20:56:23.236Z,3.00
2023-09-08T21:01:25.354Z,2.67
2023-09-08T21:06:27.814Z,3.10
2023-09-08T21:11:30.028Z,2.53
2023-09-08T21:16:32.138Z,2.75
2023-09-08T21:21:34.396Z,2.47
2023-09-08T21:26:36.576Z,2.58
2023-09-08T21:31:38.725Z,3.00
2023-09-08T21:36:41.164Z,2.85
2023-09-08T21:41:43.287Z,2.50
2023-09-08T21:46:45.371Z,3.20
2023-09-08T21:51:48.872Z,2.65
2023-09-08T21:56:51.879Z,2.50
2023-09-08T22:01:54.227Z,3.10
2023-09-08T22:06:56.836Z,2.45
2023-09-08T22:11:58.963Z,2.72
2023-09-08T22:17:01.046Z,2.78
2023-09-08T22:22:03.456Z,3.00
2023-09-08T22:27:05.784Z,3.00
2023-09-08T22:32:16.633Z,2.53
2023-09-08T22:37:18.841Z,3.10
2023-09-08T22:42:20.962Z,3.00
2023-09-08T22:47:23.062Z,3.15
2023-09-08T22:52:25.291Z,2.50
2023-09-08T22:57:27.560Z,2.97
2023-09-08T23:02:30.527Z,2.60
2023-09-08T23:07:32.731Z,2.38
2023-09-08T23:12:34.937Z,2.60
2023-09-08T23:17:37.193Z,2.40
2023-09-08T23:22:39.490Z,2.70
2023-09-08T23:27:41.658Z,2.80
2023-09-08T23:32:45.977Z,3.03
2023-09-08T23:37:49.015Z,2.35
2023-09-08T23:42:51.192Z,2.30
2023-09-08T23:47:53.969Z,3.35
2023-09-08T23:52:56.107Z,2.60
2023-09-08T23:57:58.215Z,2.50
